sensor_id;sensor_type;location;lat;lon;timestamp;P1;durP1;ratioP1;P2;durP2;ratioP2
16832;SDS011;8533;48.426;10.868;2023-06-10T00:00:39;8.70;;;6.47;;
16832;SDS011;8533;48.426;10.868;2023-06-10T00:03:06;7.67;;;6.17;;
16832;SDS011;8533;48.426;10.868;2023-06-10T00:05:32;7.63;;;6.17;;
16832;SDS011;8533;48.426;10.868;2023-06-10T00:07:59;9.00;;;6.30;;
16832;SDS011;8533;48.426;10.868;2023-06-10T00:10:26;8.93;;;6.70;;
16832;SDS011;8533;48.426;10.868;2023-06-10T00:12:52;7.20;;;6.07;;
16832;SDS011;8533;48.426;10.868;2023-06-10T00:15:17;8.23;;;6.30;;
16832;SDS011;8533;48.426;10.868;2023-06-10T00:17:43;9.20;;;6.50;;
16832;SDS011;8533;48.426;10.868;2023-06-10T00:20:08;8.90;;;6.80;;
16832;SDS011;8533;48.426;10.868;2023-06-10T00:22:36;8.33;;;6.27;;
16832;SDS011;8533;48.426;10.868;2023-06-10T00:25:02;8.17;;;6.37;;
16832;SDS011;8533;48.426;10.868;2023-06-10T00:27:29;9.47;;;6.40;;
16832;SDS011;8533;48.426;10.868;2023-06-10T00:29:59;8.53;;;6.27;;
16832;SDS011;8533;48.426;10.868;2023-06-10T00:32:25;9.70;;;6.53;;
16832;SDS011;8533;48.426;10.868;2023-06-10T00:34:51;8.17;;;6.23;;
16832;SDS011;8533;48.426;10.868;2023-06-10T00:37:16;7.93;;;6.10;;
16832;SDS011;8533;48.426;10.868;2023-06-10T00:39:41;9.33;;;6.83;;
16832;SDS011;8533;48.426;10.868;2023-06-10T00:42:07;9.67;;;6.60;;
16832;SDS011;8533;48.426;10.868;2023-06-10T00:44:32;8.97;;;6.03;;
16832;SDS011;8533;48.426;10.868;2023-06-10T00:46:57;9.07;;;7.00;;
16832;SDS011;8533;48.426;10.868;2023-06-10T00:49:23;10.93;;;6.83;;
16832;SDS011;8533;48.426;10.868;2023-06-10T00:51:49;15.00;;;6.90;;
16832;SDS011;8533;48.426;10.868;2023-06-10T00:54:16;8.50;;;6.53;;
16832;SDS011;8533;48.426;10.868;2023-06-10T00:56:42;11.47;;;6.67;;
16832;SDS011;8533;48.426;10.868;2023-06-10T00:59:08;10.10;;;6.57;;
16832;SDS011;8533;48.426;10.868;2023-06-10T01:01:33;9.80;;;6.50;;
16832;SDS011;8533;48.426;10.868;2023-06-10T01:03:59;10.10;;;6.30;;
16832;SDS011;8533;48.426;10.868;2023-06-10T01:09:20;9.07;;;6.40;;
16832;SDS011;8533;48.426;10.868;2023-06-10T01:14:36;9.53;;;6.70;;
16832;SDS011;8533;48.426;10.868;2023-06-10T01:17:03;10.27;;;6.70;;
16832;SDS011;8533;48.426;10.868;2023-06-10T01:19:29;10.17;;;7.20;;
16832;SDS011;8533;48.426;10.868;2023-06-10T01:21:56;9.17;;;6.33;;
16832;SDS011;8533;48.426;10.868;2023-06-10T01:24:25;9.97;;;6.67;;
16832;SDS011;8533;48.426;10.868;2023-06-10T01:26:51;10.93;;;7.37;;
16832;SDS011;8533;48.426;10.868;2023-06-10T01:29:19;9.13;;;6.93;;
16832;SDS011;8533;48.426;10.868;2023-06-10T01:32:04;11.47;;;6.67;;
16832;SDS011;8533;48.426;10.868;2023-06-10T01:34:34;9.83;;;6.70;;
16832;SDS011;8533;48.426;10.868;2023-06-10T01:37:01;9.07;;;6.70;;
16832;SDS011;8533;48.426;10.868;2023-06-10T01:39:28;8.80;;;6.57;;
16832;SDS011;8533;48.426;10.868;2023-06-10T01:41:55;8.90;;;6.73;;
16832;SDS011;8533;48.426;10.868;2023-06-10T01:44:21;10.00;;;6.60;;
16832;SDS011;8533;48.426;10.868;2023-06-10T01:46:48;9.40;;;6.70;;
16832;SDS011;8533;48.426;10.868;2023-06-10T01:49:13;11.23;;;6.87;;
16832;SDS011;8533;48.426;10.868;2023-06-10T01:51:38;9.73;;;6.83;;
16832;SDS011;8533;48.426;10.868;2023-06-10T01:54:04;9.47;;;6.30;;
16832;SDS011;8533;48.426;10.868;2023-06-10T01:56:29;9.37;;;6.60;;
16832;SDS011;8533;48.426;10.868;2023-06-10T01:58:54;9.13;;;6.97;;
16832;SDS011;8533;48.426;10.868;2023-06-10T02:01:23;8.93;;;6.53;;
16832;SDS011;8533;48.426;10.868;2023-06-10T02:03:49;9.03;;;6.90;;
16832;SDS011;8533;48.426;10.868;2023-06-10T02:06:14;9.47;;;6.50;;
16832;SDS011;8533;48.426;10.868;2023-06-10T02:08:40;8.87;;;6.30;;
16832;SDS011;8533;48.426;10.868;2023-06-10T02:11:05;9.57;;;6.60;;
16832;SDS011;8533;48.426;10.868;2023-06-10T02:13:32;8.20;;;6.33;;
16832;SDS011;8533;48.426;10.868;2023-06-10T02:15:57;8.37;;;6.10;;
16832;SDS011;8533;48.426;10.868;2023-06-10T02:18:22;9.93;;;6.70;;
16832;SDS011;8533;48.426;10.868;2023-06-10T02:20:48;9.13;;;6.77;;
16832;SDS011;8533;48.426;10.868;2023-06-10T02:23:13;9.23;;;6.83;;
16832;SDS011;8533;48.426;10.868;2023-06-10T02:25:39;9.37;;;6.97;;
16832;SDS011;8533;48.426;10.868;2023-06-10T02:28:05;8.90;;;6.67;;
16832;SDS011;8533;48.426;10.868;2023-06-10T02:30:30;8.93;;;6.30;;
16832;SDS011;8533;48.426;10.868;2023-06-10T02:32:56;12.40;;;7.07;;
16832;SDS011;8533;48.426;10.868;2023-06-10T02:35:21;11.03;;;7.30;;
16832;SDS011;8533;48.426;10.868;2023-06-10T02:37:47;11.13;;;7.20;;
16832;SDS011;8533;48.426;10.868;2023-06-10T02:40:12;9.90;;;6.70;;
16832;SDS011;8533;48.426;10.868;2023-06-10T02:42:38;10.23;;;7.07;;
16832;SDS011;8533;48.426;10.868;2023-06-10T02:45:03;12.27;;;7.60;;
16832;SDS011;8533;48.426;10.868;2023-06-10T02:47:29;11.23;;;6.73;;
16832;SDS011;8533;48.426;10.868;2023-06-10T02:49:55;10.87;;;7.43;;
16832;SDS011;8533;48.426;10.868;2023-06-10T02:52:20;11.87;;;7.43;;
16832;SDS011;8533;48.426;10.868;2023-06-10T02:54:45;10.20;;;7.43;;
16832;SDS011;8533;48.426;10.868;2023-06-10T02:57:11;12.80;;;7.20;;
16832;SDS011;8533;48.426;10.868;2023-06-10T02:59:36;10.90;;;7.30;;
16832;SDS011;8533;48.426;10.868;2023-06-10T03:02:01;11.17;;;6.93;;
16832;SDS011;8533;48.426;10.868;2023-06-10T03:04:27;9.70;;;6.77;;
16832;SDS011;8533;48.426;10.868;2023-06-10T03:06:54;10.47;;;7.10;;
16832;SDS011;8533;48.426;10.868;2023-06-10T03:09:20;9.70;;;6.60;;
16832;SDS011;8533;48.426;10.868;2023-06-10T03:11:45;13.23;;;7.83;;
16832;SDS011;8533;48.426;10.868;2023-06-10T03:14:10;11.03;;;7.77;;
16832;SDS011;8533;48.426;10.868;2023-06-10T03:16:36;13.27;;;7.70;;
16832;SDS011;8533;48.426;10.868;2023-06-10T03:19:05;10.00;;;7.13;;
16832;SDS011;8533;48.426;10.868;2023-06-10T03:21:31;11.00;;;7.67;;
16832;SDS011;8533;48.426;10.868;2023-06-10T03:23:56;10.07;;;6.90;;
16832;SDS011;8533;48.426;10.868;2023-06-10T03:26:21;9.67;;;6.90;;
16832;SDS011;8533;48.426;10.868;2023-06-10T03:28:46;17.33;;;6.87;;
16832;SDS011;8533;48.426;10.868;2023-06-10T03:31:12;10.27;;;7.10;;
16832;SDS011;8533;48.426;10.868;2023-06-10T03:33:37;10.30;;;6.83;;
16832;SDS011;8533;48.426;10.868;2023-06-10T03:36:04;13.03;;;7.23;;
16832;SDS011;8533;48.426;10.868;2023-06-10T03:38:29;10.67;;;6.80;;
16832;SDS011;8533;48.426;10.868;2023-06-10T03:40:54;13.70;;;7.73;;
16832;SDS011;8533;48.426;10.868;2023-06-10T03:43:20;10.80;;;7.00;;
16832;SDS011;8533;48.426;10.868;2023-06-10T03:45:45;14.73;;;7.47;;
16832;SDS011;8533;48.426;10.868;2023-06-10T03:48:11;11.70;;;7.17;;
16832;SDS011;8533;48.426;10.868;2023-06-10T03:50:36;10.73;;;6.30;;
16832;SDS011;8533;48.426;10.868;2023-06-10T03:53:02;10.97;;;7.30;;
16832;SDS011;8533;48.426;10.868;2023-06-10T03:55:27;11.23;;;7.63;;
16832;SDS011;8533;48.426;10.868;2023-06-10T03:57:52;10.77;;;7.23;;
16832;SDS011;8533;48.426;10.868;2023-06-10T04:00:18;12.00;;;7.60;;
16832;SDS011;8533;48.426;10.868;2023-06-10T04:02:43;10.60;;;6.60;;
16832;SDS011;8533;48.426;10.868;2023-06-10T04:05:12;10.87;;;7.40;;
16832;SDS011;8533;48.426;10.868;2023-06-10T04:07:39;11.23;;;7.47;;
16832;SDS011;8533;48.426;10.868;2023-06-10T04:10:05;13.27;;;8.83;;
16832;SDS011;8533;48.426;10.868;2023-06-10T04:12:31;13.00;;;7.60;;
16832;SDS011;8533;48.426;10.868;2023-06-10T04:14:57;10.53;;;7.17;;
16832;SDS011;8533;48.426;10.868;2023-06-10T04:17:22;10.97;;;7.60;;
16832;SDS011;8533;48.426;10.868;2023-06-10T04:19:47;10.40;;;7.33;;
16832;SDS011;8533;48.426;10.868;2023-06-10T04:22:13;12.03;;;7.13;;
16832;SDS011;8533;48.426;10.868;2023-06-10T04:24:38;12.27;;;7.00;;
16832;SDS011;8533;48.426;10.868;2023-06-10T04:27:03;11.83;;;7.53;;
16832;SDS011;8533;48.426;10.868;2023-06-10T04:29:29;11.57;;;7.33;;
16832;SDS011;8533;48.426;10.868;2023-06-10T04:31:54;11.93;;;7.37;;
16832;SDS011;8533;48.426;10.868;2023-06-10T04:34:19;11.13;;;7.47;;
16832;SDS011;8533;48.426;10.868;2023-06-10T04:36:45;11.33;;;7.53;;
16832;SDS011;8533;48.426;10.868;2023-06-10T04:39:10;13.07;;;7.00;;
16832;SDS011;8533;48.426;10.868;2023-06-10T04:41:35;11.00;;;7.43;;
16832;SDS011;8533;48.426;10.868;2023-06-10T04:44:01;12.83;;;7.40;;
16832;SDS011;8533;48.426;10.868;2023-06-10T04:46:26;11.03;;;7.50;;
16832;SDS011;8533;48.426;10.868;2023-06-10T04:48:51;12.47;;;7.23;;
16832;SDS011;8533;48.426;10.868;2023-06-10T04:51:16;14.00;;;7.93;;
16832;SDS011;8533;48.426;10.868;2023-06-10T04:53:42;11.13;;;7.23;;
16832;SDS011;8533;48.426;10.868;2023-06-10T04:56:07;11.73;;;7.60;;
16832;SDS011;8533;48.426;10.868;2023-06-10T04:58:33;10.53;;;6.80;;
16832;SDS011;8533;48.426;10.868;2023-06-10T05:00:58;11.17;;;7.43;;
16832;SDS011;8533;48.426;10.868;2023-06-10T05:03:24;10.30;;;7.03;;
16832;SDS011;8533;48.426;10.868;2023-06-10T05:05:50;9.70;;;6.90;;
16832;SDS011;8533;48.426;10.868;2023-06-10T05:08:15;10.77;;;6.90;;
16832;SDS011;8533;48.426;10.868;2023-06-10T05:10:41;10.97;;;7.07;;
16832;SDS011;8533;48.426;10.868;2023-06-10T05:13:06;12.10;;;7.37;;
16832;SDS011;8533;48.426;10.868;2023-06-10T05:15:31;11.73;;;6.57;;
16832;SDS011;8533;48.426;10.868;2023-06-10T05:17:57;11.40;;;7.13;;
16832;SDS011;8533;48.426;10.868;2023-06-10T05:20:27;10.37;;;7.10;;
16832;SDS011;8533;48.426;10.868;2023-06-10T05:22:53;9.93;;;6.90;;
16832;SDS011;8533;48.426;10.868;2023-06-10T05:25:18;11.33;;;7.30;;
16832;SDS011;8533;48.426;10.868;2023-06-10T05:27:44;10.60;;;6.53;;
16832;SDS011;8533;48.426;10.868;2023-06-10T05:30:10;10.07;;;7.10;;
16832;SDS011;8533;48.426;10.868;2023-06-10T05:32:36;11.67;;;7.10;;
16832;SDS011;8533;48.426;10.868;2023-06-10T05:35:01;12.83;;;7.30;;
16832;SDS011;8533;48.426;10.868;2023-06-10T05:37:28;9.90;;;6.87;;
16832;SDS011;8533;48.426;10.868;2023-06-10T05:39:54;11.40;;;6.73;;
16832;SDS011;8533;48.426;10.868;2023-06-10T05:42:19;9.73;;;6.77;;
16832;SDS011;8533;48.426;10.868;2023-06-10T05:44:44;9.87;;;6.80;;
16832;SDS011;8533;48.426;10.868;2023-06-10T05:47:10;11.00;;;6.80;;
16832;SDS011;8533;48.426;10.868;2023-06-10T05:49:35;12.00;;;6.47;;
16832;SDS011;8533;48.426;10.868;2023-06-10T05:52:00;10.37;;;6.90;;
16832;SDS011;8533;48.426;10.868;2023-06-10T05:54:26;9.80;;;6.40;;
16832;SDS011;8533;48.426;10.868;2023-06-10T05:56:51;9.33;;;6.57;;
16832;SDS011;8533;48.426;10.868;2023-06-10T05:59:16;9.63;;;6.60;;
16832;SDS011;8533;48.426;10.868;2023-06-10T06:01:42;8.80;;;5.80;;
16832;SDS011;8533;48.426;10.868;2023-06-10T06:04:07;11.17;;;7.07;;
16832;SDS011;8533;48.426;10.868;2023-06-10T06:06:32;9.73;;;6.47;;
16832;SDS011;8533;48.426;10.868;2023-06-10T06:08:57;10.57;;;7.10;;
16832;SDS011;8533;48.426;10.868;2023-06-10T06:11:23;9.83;;;7.07;;
16832;SDS011;8533;48.426;10.868;2023-06-10T06:13:49;8.57;;;6.30;;
16832;SDS011;8533;48.426;10.868;2023-06-10T06:16:15;9.20;;;6.33;;
16832;SDS011;8533;48.426;10.868;2023-06-10T06:18:40;10.10;;;6.43;;
16832;SDS011;8533;48.426;10.868;2023-06-10T06:21:05;8.43;;;6.20;;
16832;SDS011;8533;48.426;10.868;2023-06-10T06:23:30;8.30;;;6.47;;
16832;SDS011;8533;48.426;10.868;2023-06-10T06:25:56;9.17;;;6.60;;
16832;SDS011;8533;48.426;10.868;2023-06-10T06:28:21;8.97;;;6.20;;
16832;SDS011;8533;48.426;10.868;2023-06-10T06:30:47;10.40;;;7.23;;
16832;SDS011;8533;48.426;10.868;2023-06-10T06:33:13;11.83;;;6.77;;
16832;SDS011;8533;48.426;10.868;2023-06-10T06:35:38;8.67;;;6.60;;
16832;SDS011;8533;48.426;10.868;2023-06-10T06:38:03;10.90;;;6.53;;
16832;SDS011;8533;48.426;10.868;2023-06-10T06:40:29;10.70;;;7.20;;
16832;SDS011;8533;48.426;10.868;2023-06-10T06:42:54;10.23;;;7.27;;
16832;SDS011;8533;48.426;10.868;2023-06-10T06:45:20;12.80;;;7.13;;
16832;SDS011;8533;48.426;10.868;2023-06-10T06:47:45;10.47;;;6.63;;
16832;SDS011;8533;48.426;10.868;2023-06-10T06:50:10;9.10;;;6.67;;
16832;SDS011;8533;48.426;10.868;2023-06-10T06:52:36;8.83;;;6.37;;
16832;SDS011;8533;48.426;10.868;2023-06-10T06:55:01;10.63;;;6.70;;
16832;SDS011;8533;48.426;10.868;2023-06-10T06:57:26;9.50;;;6.73;;
16832;SDS011;8533;48.426;10.868;2023-06-10T06:59:52;11.37;;;7.43;;
16832;SDS011;8533;48.426;10.868;2023-06-10T07:02:17;9.53;;;6.97;;
16832;SDS011;8533;48.426;10.868;2023-06-10T07:04:43;11.60;;;7.27;;
16832;SDS011;8533;48.426;10.868;2023-06-10T07:07:09;9.57;;;6.57;;
16832;SDS011;8533;48.426;10.868;2023-06-10T07:09:34;7.87;;;5.97;;
16832;SDS011;8533;48.426;10.868;2023-06-10T07:11:59;8.63;;;6.40;;
16832;SDS011;8533;48.426;10.868;2023-06-10T07:14:25;8.70;;;6.13;;
16832;SDS011;8533;48.426;10.868;2023-06-10T07:16:50;10.23;;;6.37;;
16832;SDS011;8533;48.426;10.868;2023-06-10T07:19:15;9.63;;;6.07;;
16832;SDS011;8533;48.426;10.868;2023-06-10T07:21:41;10.40;;;6.50;;
16832;SDS011;8533;48.426;10.868;2023-06-10T07:24:06;6.97;;;5.27;;
16832;SDS011;8533;48.426;10.868;2023-06-10T07:26:32;7.50;;;5.27;;
16832;SDS011;8533;48.426;10.868;2023-06-10T07:28:57;8.77;;;6.17;;
16832;SDS011;8533;48.426;10.868;2023-06-10T07:31:22;8.57;;;5.93;;
16832;SDS011;8533;48.426;10.868;2023-06-10T07:33:48;9.00;;;5.57;;
16832;SDS011;8533;48.426;10.868;2023-06-10T07:36:13;7.57;;;5.67;;
16832;SDS011;8533;48.426;10.868;2023-06-10T07:38:39;6.77;;;5.30;;
16832;SDS011;8533;48.426;10.868;2023-06-10T07:41:06;8.77;;;5.57;;
16832;SDS011;8533;48.426;10.868;2023-06-10T07:43:31;7.00;;;5.27;;
16832;SDS011;8533;48.426;10.868;2023-06-10T07:45:56;7.67;;;5.57;;
16832;SDS011;8533;48.426;10.868;2023-06-10T07:48:21;7.23;;;5.73;;
16832;SDS011;8533;48.426;10.868;2023-06-10T07:50:47;27.27;;;5.60;;
16832;SDS011;8533;48.426;10.868;2023-06-10T07:53:12;6.83;;;5.20;;
16832;SDS011;8533;48.426;10.868;2023-06-10T07:55:37;7.30;;;5.23;;
16832;SDS011;8533;48.426;10.868;2023-06-10T07:58:03;5.93;;;4.90;;
16832;SDS011;8533;48.426;10.868;2023-06-10T08:00:28;6.33;;;5.00;;
16832;SDS011;8533;48.426;10.868;2023-06-10T08:02:53;7.87;;;5.57;;
16832;SDS011;8533;48.426;10.868;2023-06-10T08:05:18;7.23;;;5.23;;
16832;SDS011;8533;48.426;10.868;2023-06-10T08:07:44;6.53;;;4.83;;
16832;SDS011;8533;48.426;10.868;2023-06-10T08:10:09;10.53;;;5.73;;
16832;SDS011;8533;48.426;10.868;2023-06-10T08:12:35;6.73;;;5.10;;
16832;SDS011;8533;48.426;10.868;2023-06-10T08:15:00;7.90;;;5.60;;
16832;SDS011;8533;48.426;10.868;2023-06-10T08:17:26;6.70;;;5.27;;
16832;SDS011;8533;48.426;10.868;2023-06-10T08:19:52;6.43;;;5.10;;
16832;SDS011;8533;48.426;10.868;2023-06-10T08:22:17;9.77;;;5.20;;
16832;SDS011;8533;48.426;10.868;2023-06-10T08:24:43;7.87;;;5.47;;
16832;SDS011;8533;48.426;10.868;2023-06-10T08:27:08;7.57;;;4.87;;
16832;SDS011;8533;48.426;10.868;2023-06-10T08:29:34;5.83;;;4.63;;
16832;SDS011;8533;48.426;10.868;2023-06-10T08:31:59;7.33;;;5.20;;
16832;SDS011;8533;48.426;10.868;2023-06-10T08:34:25;5.93;;;4.80;;
16832;SDS011;8533;48.426;10.868;2023-06-10T08:36:50;8.23;;;5.70;;
16832;SDS011;8533;48.426;10.868;2023-06-10T08:39:18;8.93;;;4.70;;
16832;SDS011;8533;48.426;10.868;2023-06-10T08:41:45;8.17;;;5.37;;
16832;SDS011;8533;48.426;10.868;2023-06-10T08:44:22;6.00;;;5.27;;
16832;SDS011;8533;48.426;10.868;2023-06-10T08:46:53;6.47;;;5.33;;
16832;SDS011;8533;48.426;10.868;2023-06-10T08:49:21;6.97;;;4.77;;
16832;SDS011;8533;48.426;10.868;2023-06-10T08:51:51;7.50;;;5.37;;
16832;SDS011;8533;48.426;10.868;2023-06-10T08:54:25;10.00;;;6.93;;
16832;SDS011;8533;48.426;10.868;2023-06-10T08:56:54;6.63;;;4.93;;
16832;SDS011;8533;48.426;10.868;2023-06-10T08:59:22;7.40;;;5.57;;
16832;SDS011;8533;48.426;10.868;2023-06-10T09:01:48;6.67;;;5.10;;
16832;SDS011;8533;48.426;10.868;2023-06-10T09:04:15;7.20;;;5.27;;
16832;SDS011;8533;48.426;10.868;2023-06-10T09:06:42;6.63;;;4.87;;
16832;SDS011;8533;48.426;10.868;2023-06-10T09:09:08;5.90;;;4.87;;
16832;SDS011;8533;48.426;10.868;2023-06-10T09:11:34;6.93;;;4.80;;
16832;SDS011;8533;48.426;10.868;2023-06-10T09:13:59;6.73;;;4.90;;
16832;SDS011;8533;48.426;10.868;2023-06-10T09:16:25;7.50;;;4.43;;
16832;SDS011;8533;48.426;10.868;2023-06-10T09:18:50;7.43;;;4.90;;
16832;SDS011;8533;48.426;10.868;2023-06-10T09:21:21;4.97;;;4.47;;
16832;SDS011;8533;48.426;10.868;2023-06-10T09:23:47;5.93;;;4.67;;
16832;SDS011;8533;48.426;10.868;2023-06-10T09:26:13;6.80;;;5.43;;
16832;SDS011;8533;48.426;10.868;2023-06-10T09:28:38;5.67;;;4.70;;
16832;SDS011;8533;48.426;10.868;2023-06-10T09:31:05;5.67;;;4.53;;
16832;SDS011;8533;48.426;10.868;2023-06-10T09:33:32;6.67;;;5.17;;
16832;SDS011;8533;48.426;10.868;2023-06-10T09:35:59;5.70;;;4.87;;
16832;SDS011;8533;48.426;10.868;2023-06-10T09:38:29;6.57;;;4.80;;
16832;SDS011;8533;48.426;10.868;2023-06-10T09:40:56;5.87;;;4.93;;
16832;SDS011;8533;48.426;10.868;2023-06-10T09:43:22;6.20;;;4.90;;
16832;SDS011;8533;48.426;10.868;2023-06-10T09:45:48;6.40;;;5.40;;
16832;SDS011;8533;48.426;10.868;2023-06-10T09:48:14;8.27;;;4.90;;
16832;SDS011;8533;48.426;10.868;2023-06-10T09:50:43;6.90;;;5.03;;
16832;SDS011;8533;48.426;10.868;2023-06-10T09:53:09;7.03;;;5.37;;
16832;SDS011;8533;48.426;10.868;2023-06-10T09:55:37;6.47;;;4.93;;
16832;SDS011;8533;48.426;10.868;2023-06-10T09:58:03;6.97;;;5.30;;
16832;SDS011;8533;48.426;10.868;2023-06-10T10:00:31;6.43;;;5.47;;
16832;SDS011;8533;48.426;10.868;2023-06-10T10:02:57;6.57;;;5.00;;
16832;SDS011;8533;48.426;10.868;2023-06-10T10:05:22;6.10;;;5.13;;
16832;SDS011;8533;48.426;10.868;2023-06-10T10:07:48;8.03;;;4.73;;
16832;SDS011;8533;48.426;10.868;2023-06-10T10:10:14;8.93;;;5.37;;
16832;SDS011;8533;48.426;10.868;2023-06-10T10:12:41;6.50;;;4.97;;
16832;SDS011;8533;48.426;10.868;2023-06-10T10:15:08;6.50;;;5.20;;
16832;SDS011;8533;48.426;10.868;2023-06-10T10:17:37;5.80;;;5.17;;
16832;SDS011;8533;48.426;10.868;2023-06-10T10:20:05;6.33;;;5.23;;
16832;SDS011;8533;48.426;10.868;2023-06-10T10:22:35;6.30;;;5.20;;
16832;SDS011;8533;48.426;10.868;2023-06-10T10:25:06;8.53;;;5.77;;
16832;SDS011;8533;48.426;10.868;2023-06-10T10:27:38;8.17;;;5.40;;
16832;SDS011;8533;48.426;10.868;2023-06-10T10:30:08;6.20;;;5.03;;
16832;SDS011;8533;48.426;10.868;2023-06-10T10:32:55;5.50;;;4.80;;
16832;SDS011;8533;48.426;10.868;2023-06-10T10:35:23;5.57;;;4.67;;
16832;SDS011;8533;48.426;10.868;2023-06-10T10:37:51;6.70;;;4.50;;
16832;SDS011;8533;48.426;10.868;2023-06-10T10:40:17;5.43;;;4.37;;
16832;SDS011;8533;48.426;10.868;2023-06-10T10:42:43;6.07;;;4.30;;
16832;SDS011;8533;48.426;10.868;2023-06-10T10:45:09;5.77;;;4.87;;
16832;SDS011;8533;48.426;10.868;2023-06-10T10:47:36;7.27;;;5.03;;
16832;SDS011;8533;48.426;10.868;2023-06-10T10:50:03;5.50;;;4.63;;
16832;SDS011;8533;48.426;10.868;2023-06-10T10:53:01;5.57;;;4.33;;
16832;SDS011;8533;48.426;10.868;2023-06-10T10:55:26;6.50;;;5.23;;
16832;SDS011;8533;48.426;10.868;2023-06-10T10:58:07;5.77;;;5.10;;
16832;SDS011;8533;48.426;10.868;2023-06-10T11:00:34;5.47;;;4.47;;
16832;SDS011;8533;48.426;10.868;2023-06-10T11:05:33;6.10;;;4.20;;
16832;SDS011;8533;48.426;10.868;2023-06-10T11:08:05;5.23;;;4.67;;
16832;SDS011;8533;48.426;10.868;2023-06-10T11:10:34;5.80;;;4.80;;
16832;SDS011;8533;48.426;10.868;2023-06-10T11:13:12;5.30;;;4.50;;
16832;SDS011;8533;48.426;10.868;2023-06-10T11:15:45;6.53;;;4.80;;
16832;SDS011;8533;48.426;10.868;2023-06-10T11:26:08;5.57;;;4.33;;
16832;SDS011;8533;48.426;10.868;2023-06-10T11:28:33;5.37;;;4.67;;
16832;SDS011;8533;48.426;10.868;2023-06-10T11:30:59;5.87;;;4.63;;
16832;SDS011;8533;48.426;10.868;2023-06-10T11:33:24;5.83;;;5.10;;
16832;SDS011;8533;48.426;10.868;2023-06-10T11:35:50;5.27;;;4.77;;
16832;SDS011;8533;48.426;10.868;2023-06-10T11:38:15;6.63;;;4.73;;
16832;SDS011;8533;48.426;10.868;2023-06-10T11:40:46;7.73;;;5.27;;
16832;SDS011;8533;48.426;10.868;2023-06-10T11:43:13;6.10;;;5.30;;
16832;SDS011;8533;48.426;10.868;2023-06-10T11:45:41;6.07;;;5.20;;
16832;SDS011;8533;48.426;10.868;2023-06-10T11:48:06;6.50;;;5.43;;
16832;SDS011;8533;48.426;10.868;2023-06-10T11:50:32;6.23;;;5.20;;
16832;SDS011;8533;48.426;10.868;2023-06-10T11:52:58;6.57;;;5.17;;
16832;SDS011;8533;48.426;10.868;2023-06-10T11:55:25;6.07;;;4.77;;
16832;SDS011;8533;48.426;10.868;2023-06-10T11:57:51;7.50;;;5.30;;
16832;SDS011;8533;48.426;10.868;2023-06-10T12:00:22;6.97;;;5.67;;
16832;SDS011;8533;48.426;10.868;2023-06-10T12:02:55;5.50;;;5.00;;
16832;SDS011;8533;48.426;10.868;2023-06-10T12:05:22;8.80;;;5.60;;
16832;SDS011;8533;48.426;10.868;2023-06-10T12:07:47;7.53;;;5.37;;
16832;SDS011;8533;48.426;10.868;2023-06-10T12:10:12;6.10;;;4.83;;
16832;SDS011;8533;48.426;10.868;2023-06-10T12:12:38;6.20;;;5.00;;
16832;SDS011;8533;48.426;10.868;2023-06-10T12:15:03;5.97;;;4.97;;
16832;SDS011;8533;48.426;10.868;2023-06-10T12:19:56;5.93;;;5.10;;
16832;SDS011;8533;48.426;10.868;2023-06-10T12:22:21;5.30;;;4.80;;
16832;SDS011;8533;48.426;10.868;2023-06-10T12:24:58;6.83;;;5.07;;
16832;SDS011;8533;48.426;10.868;2023-06-10T12:27:25;7.77;;;5.00;;
16832;SDS011;8533;48.426;10.868;2023-06-10T12:29:51;7.10;;;5.30;;
16832;SDS011;8533;48.426;10.868;2023-06-10T12:32:18;7.33;;;5.70;;
16832;SDS011;8533;48.426;10.868;2023-06-10T12:34:47;7.17;;;5.20;;
16832;SDS011;8533;48.426;10.868;2023-06-10T12:37:13;5.27;;;4.77;;
16832;SDS011;8533;48.426;10.868;2023-06-10T12:39:39;5.33;;;4.70;;
16832;SDS011;8533;48.426;10.868;2023-06-10T12:42:05;5.73;;;5.10;;
16832;SDS011;8533;48.426;10.868;2023-06-10T12:44:35;6.50;;;4.60;;
16832;SDS011;8533;48.426;10.868;2023-06-10T12:47:09;6.03;;;5.00;;
16832;SDS011;8533;48.426;10.868;2023-06-10T12:49:37;5.30;;;4.80;;
16832;SDS011;8533;48.426;10.868;2023-06-10T12:52:03;6.13;;;4.80;;
16832;SDS011;8533;48.426;10.868;2023-06-10T12:54:30;5.50;;;4.90;;
16832;SDS011;8533;48.426;10.868;2023-06-10T12:56:55;5.47;;;4.60;;
16832;SDS011;8533;48.426;10.868;2023-06-10T12:59:21;6.10;;;4.37;;
16832;SDS011;8533;48.426;10.868;2023-06-10T13:01:49;5.60;;;4.30;;
16832;SDS011;8533;48.426;10.868;2023-06-10T13:04:16;5.20;;;4.23;;
16832;SDS011;8533;48.426;10.868;2023-06-10T13:06:43;5.73;;;4.80;;
16832;SDS011;8533;48.426;10.868;2023-06-10T13:09:08;6.27;;;5.00;;
16832;SDS011;8533;48.426;10.868;2023-06-10T13:11:34;4.90;;;4.10;;
16832;SDS011;8533;48.426;10.868;2023-06-10T13:14:00;4.40;;;3.93;;
16832;SDS011;8533;48.426;10.868;2023-06-10T13:16:26;4.20;;;3.80;;
16832;SDS011;8533;48.426;10.868;2023-06-10T13:18:52;4.47;;;4.03;;
16832;SDS011;8533;48.426;10.868;2023-06-10T13:21:18;4.73;;;4.13;;
16832;SDS011;8533;48.426;10.868;2023-06-10T13:23:44;5.43;;;4.57;;
16832;SDS011;8533;48.426;10.868;2023-06-10T13:26:12;6.07;;;4.60;;
16832;SDS011;8533;48.426;10.868;2023-06-10T13:28:38;5.20;;;4.23;;
16832;SDS011;8533;48.426;10.868;2023-06-10T13:31:04;5.60;;;4.70;;
16832;SDS011;8533;48.426;10.868;2023-06-10T13:33:29;4.00;;;3.60;;
16832;SDS011;8533;48.426;10.868;2023-06-10T13:35:54;5.23;;;4.33;;
16832;SDS011;8533;48.426;10.868;2023-06-10T13:38:19;5.03;;;4.23;;
16832;SDS011;8533;48.426;10.868;2023-06-10T13:40:45;4.80;;;4.17;;
16832;SDS011;8533;48.426;10.868;2023-06-10T13:43:10;4.73;;;4.27;;
16832;SDS011;8533;48.426;10.868;2023-06-10T13:45:36;4.20;;;3.80;;
16832;SDS011;8533;48.426;10.868;2023-06-10T13:48:02;4.53;;;4.00;;
16832;SDS011;8533;48.426;10.868;2023-06-10T13:50:29;4.50;;;3.93;;
16832;SDS011;8533;48.426;10.868;2023-06-10T13:52:54;5.13;;;4.27;;
16832;SDS011;8533;48.426;10.868;2023-06-10T13:55:19;4.83;;;4.00;;
16832;SDS011;8533;48.426;10.868;2023-06-10T13:57:45;4.80;;;4.30;;
16832;SDS011;8533;48.426;10.868;2023-06-10T14:00:11;4.83;;;4.33;;
16832;SDS011;8533;48.426;10.868;2023-06-10T14:02:36;5.77;;;4.53;;
16832;SDS011;8533;48.426;10.868;2023-06-10T14:05:02;5.17;;;4.37;;
16832;SDS011;8533;48.426;10.868;2023-06-10T14:07:27;5.33;;;4.50;;
16832;SDS011;8533;48.426;10.868;2023-06-10T14:09:53;5.43;;;4.50;;
16832;SDS011;8533;48.426;10.868;2023-06-10T14:12:18;4.33;;;3.83;;
16832;SDS011;8533;48.426;10.868;2023-06-10T14:14:43;3.53;;;3.00;;
16832;SDS011;8533;48.426;10.868;2023-06-10T14:17:09;3.40;;;3.03;;
16832;SDS011;8533;48.426;10.868;2023-06-10T14:19:34;3.70;;;3.40;;
16832;SDS011;8533;48.426;10.868;2023-06-10T14:21:59;4.37;;;3.73;;
16832;SDS011;8533;48.426;10.868;2023-06-10T14:24:24;4.30;;;3.90;;
16832;SDS011;8533;48.426;10.868;2023-06-10T14:26:50;4.30;;;3.90;;
16832;SDS011;8533;48.426;10.868;2023-06-10T14:29:15;4.00;;;3.60;;
16832;SDS011;8533;48.426;10.868;2023-06-10T14:31:40;4.57;;;3.40;;
16832;SDS011;8533;48.426;10.868;2023-06-10T14:34:06;4.53;;;3.33;;
16832;SDS011;8533;48.426;10.868;2023-06-10T14:36:33;4.63;;;3.77;;
16832;SDS011;8533;48.426;10.868;2023-06-10T14:38:58;5.10;;;3.40;;
16832;SDS011;8533;48.426;10.868;2023-06-10T14:41:23;3.90;;;3.50;;
16832;SDS011;8533;48.426;10.868;2023-06-10T14:43:49;4.63;;;3.50;;
16832;SDS011;8533;48.426;10.868;2023-06-10T14:46:15;4.07;;;3.67;;
16832;SDS011;8533;48.426;10.868;2023-06-10T14:48:40;4.87;;;4.23;;
16832;SDS011;8533;48.426;10.868;2023-06-10T14:51:05;4.03;;;3.37;;
16832;SDS011;8533;48.426;10.868;2023-06-10T14:53:31;4.37;;;3.43;;
16832;SDS011;8533;48.426;10.868;2023-06-10T14:55:56;3.80;;;3.37;;